createdAt,value
2018-06-18T00:00:00.597Z,4.10
2018-06-18T00:02:29.021Z,3.70
2018-06-18T00:04:57.391Z,3.90
2018-06-18T00:07:25.724Z,3.85
2018-06-18T00:09:54.133Z,3.90
2018-06-18T00:12:22.472Z,3.10
2018-06-18T00:14:50.876Z,3.80
2018-06-18T00:17:19.241Z,3.10
2018-06-18T00:19:47.715Z,4.15
2018-06-18T00:22:17.261Z,4.00
2018-06-18T00:24:46.345Z,4.37
2018-06-18T00:27:14.852Z,3.60
2018-06-18T00:29:43.225Z,4.05
2018-06-18T00:32:11.879Z,3.50
2018-06-18T00:34:40.760Z,4.17
2018-06-18T00:37:09.252Z,3.55
2018-06-18T00:39:37.790Z,4.20
2018-06-18T00:42:06.434Z,4.75
2018-06-18T00:44:34.812Z,4.00
2018-06-18T00:47:03.303Z,3.83
2018-06-18T00:49:31.689Z,3.95
2018-06-18T00:52:00.083Z,3.80
2018-06-18T00:54:28.429Z,4.33
2018-06-18T00:56:56.836Z,4.63
2018-06-18T00:59:25.186Z,3.87
2018-06-18T01:01:53.529Z,4.03
2018-06-18T01:04:21.881Z,3.83
2018-06-18T01:06:50.222Z,3.95
2018-06-18T01:09:24.207Z,3.90
2018-06-18T01:11:55.762Z,3.05
2018-06-18T01:14:27.355Z,4.80
2018-06-18T01:16:58.827Z,4.65
2018-06-18T01:19:30.747Z,3.92
2018-06-18T01:22:03.351Z,5.00
2018-06-18T01:24:50.079Z,3.62
2018-06-18T01:27:23.336Z,3.60
2018-06-18T01:29:53.208Z,4.10
2018-06-18T01:32:21.535Z,3.87
2018-06-18T01:34:49.940Z,3.87
2018-06-18T01:37:18.301Z,3.72
2018-06-18T01:39:46.738Z,4.12
2018-06-18T01:42:15.076Z,3.60
2018-06-18T01:44:43.525Z,3.80
2018-06-18T01:47:11.923Z,4.10
2018-06-18T01:49:40.326Z,4.90
2018-06-18T01:52:08.743Z,3.60
2018-06-18T01:54:37.181Z,3.70
2018-06-18T01:57:05.575Z,3.75
2018-06-18T01:59:33.979Z,3.87
2018-06-18T02:02:02.391Z,3.72
2018-06-18T02:04:30.733Z,3.98
2018-06-18T02:06:59.238Z,4.00
2018-06-18T02:09:27.546Z,4.25
2018-06-18T02:11:55.961Z,3.80
2018-06-18T02:14:24.337Z,3.65
2018-06-18T02:16:52.736Z,5.20
2018-06-18T02:19:21.132Z,4.12
2018-06-18T02:21:49.479Z,4.53
2018-06-18T02:24:17.861Z,3.50
2018-06-18T02:26:46.239Z,3.85
2018-06-18T02:29:19.985Z,4.40
2018-06-18T02:31:53.661Z,4.45
2018-06-18T02:34:27.445Z,4.20
2018-06-18T02:37:00.949Z,3.85
2018-06-18T02:39:29.318Z,3.55
2018-06-18T02:41:57.677Z,4.30
2018-06-18T02:44:26.125Z,4.10
2018-06-18T02:46:54.516Z,3.95
2018-06-18T02:49:22.880Z,4.20
2018-06-18T02:51:51.249Z,3.85
2018-06-18T02:54:19.645Z,4.12
2018-06-18T02:56:52.457Z,4.47
2018-06-18T02:59:20.919Z,3.87
2018-06-18T03:01:49.305Z,4.62
2018-06-18T03:04:17.673Z,4.53
2018-06-18T03:06:46.048Z,3.92
2018-06-18T03:09:14.758Z,4.20
2018-06-18T03:11:43.152Z,3.62
2018-06-18T03:14:11.480Z,3.30
2018-06-18T03:16:39.944Z,3.55
2018-06-18T03:19:13.620Z,3.75
2018-06-18T03:21:47.292Z,4.55
2018-06-18T03:24:20.930Z,4.15
2018-06-18T03:26:54.738Z,3.45
2018-06-18T03:29:25.155Z,3.98
2018-06-18T03:31:54.351Z,3.27
2018-06-18T03:34:22.660Z,3.25
2018-06-18T03:36:51.129Z,4.40
2018-06-18T03:39:19.566Z,3.70
2018-06-18T03:41:48.808Z,4.40
2018-06-18T03:44:22.905Z,5.40
2018-06-18T03:46:51.273Z,4.95
2018-06-18T03:49:19.676Z,4.15
2018-06-18T03:51:48.044Z,4.00
2018-06-18T03:54:16.432Z,4.30
2018-06-18T03:56:44.823Z,4.50
2018-06-18T03:59:13.229Z,4.67
2018-06-18T04:01:54.485Z,4.10
2018-06-18T04:06:30.102Z,4.78
2018-06-18T04:09:03.787Z,4.30
2018-06-18T04:11:37.513Z,4.97
2018-06-18T04:14:05.909Z,4.10
2018-06-18T04:16:34.347Z,4.65
2018-06-18T04:19:02.716Z,4.55
2018-06-18T04:21:31.104Z,4.55
2018-06-18T04:23:59.441Z,4.97
2018-06-18T04:26:27.804Z,4.35
2018-06-18T04:28:56.281Z,4.80
2018-06-18T04:31:24.630Z,4.58
2018-06-18T04:33:58.513Z,5.15
2018-06-18T04:36:26.871Z,4.37
2018-06-18T04:38:55.265Z,4.83
2018-06-18T04:41:23.640Z,4.33
2018-06-18T04:43:57.905Z,5.62
2018-06-18T04:46:31.509Z,4.87
2018-06-18T04:49:04.997Z,4.78
2018-06-18T04:51:33.375Z,4.62
2018-06-18T04:54:01.708Z,4.90
2018-06-18T04:56:30.235Z,5.80
2018-06-18T04:58:58.626Z,4.65
2018-06-18T05:01:28.270Z,4.47
2018-06-18T05:03:56.689Z,4.53
2018-06-18T05:06:25.660Z,4.90
2018-06-18T05:09:09.983Z,3.75
2018-06-18T05:11:38.458Z,4.65
2018-06-18T05:14:07.083Z,4.37
2018-06-18T05:16:35.580Z,3.67
2018-06-18T05:19:03.988Z,3.30
2018-06-18T05:21:32.444Z,3.77
2018-06-18T05:24:00.827Z,3.90
2018-06-18T05:26:29.313Z,4.00
2018-06-18T05:28:57.628Z,4.03
2018-06-18T05:31:26.053Z,4.42
2018-06-18T05:33:54.388Z,4.10
2018-06-18T05:36:22.806Z,3.98
2018-06-18T05:38:51.221Z,4.22
2018-06-18T05:41:21.694Z,3.50
2018-06-18T05:43:50.196Z,3.55
2018-06-18T05:46:18.561Z,3.33
2018-06-18T05:48:47.056Z,3.80
2018-06-18T05:51:15.555Z,3.52
2018-06-18T05:53:44.019Z,3.95
2018-06-18T05:56:12.433Z,3.80
2018-06-18T05:58:40.872Z,3.50
2018-06-18T06:01:09.237Z,4.12
2018-06-18T06:03:37.635Z,3.43
2018-06-18T06:06:06.016Z,3.45
2018-06-18T06:08:34.379Z,3.58
2018-06-18T06:11:02.711Z,3.42
2018-06-18T06:13:31.077Z,3.30
2018-06-18T06:15:59.456Z,3.02
2018-06-18T06:18:29.147Z,4.05
2018-06-18T06:21:00.975Z,3.77
2018-06-18T06:23:29.641Z,3.20
2018-06-18T06:25:58.101Z,3.90
2018-06-18T06:28:27.242Z,2.90
2018-06-18T06:30:56.076Z,3.47
2018-06-18T06:33:25.682Z,3.65
2018-06-18T06:35:54.716Z,3.70
2018-06-18T06:38:23.844Z,2.37
2018-06-18T06:40:53.447Z,2.80
2018-06-18T06:43:22.840Z,3.17
2018-06-18T06:45:52.019Z,2.98
2018-06-18T06:48:20.501Z,2.65
2018-06-18T06:50:57.401Z,3.50
2018-06-18T06:53:25.763Z,3.37
2018-06-18T06:55:54.290Z,3.50
2018-06-18T06:58:22.857Z,3.13
2018-06-18T07:03:48.857Z,3.07
2018-06-18T07:06:17.432Z,3.53
2018-06-18T07:08:46.176Z,3.00
2018-06-18T07:11:14.760Z,3.70
2018-06-18T07:13:43.877Z,3.57
2018-06-18T07:16:12.421Z,3.70
2018-06-18T07:18:40.997Z,3.37
2018-06-18T07:21:09.616Z,3.00
2018-06-18T07:23:38.041Z,2.90
2018-06-18T07:26:06.739Z,2.40
2018-06-18T07:28:35.196Z,2.30
2018-06-18T07:31:03.688Z,3.50
2018-06-18T07:33:32.250Z,3.10
2018-06-18T07:36:01.295Z,2.60
2018-06-18T07:38:29.841Z,2.50
2018-06-18T07:40:58.937Z,2.97
2018-06-18T07:43:27.474Z,2.60
2018-06-18T07:45:56.052Z,2.83
2018-06-18T07:48:24.611Z,2.37
2018-06-18T07:50:53.302Z,3.70
2018-06-18T07:53:21.810Z,4.00
2018-06-18T07:55:50.384Z,3.10
2018-06-18T07:58:18.917Z,2.50
2018-06-18T08:00:47.396Z,2.80
2018-06-18T08:03:16.164Z,3.40
2018-06-18T08:05:45.259Z,3.00
2018-06-18T08:08:13.942Z,2.40
2018-06-18T08:10:42.443Z,3.37
2018-06-18T08:13:10.877Z,2.73
2018-06-18T08:15:39.359Z,2.30
2018-06-18T08:18:08.943Z,3.10
2018-06-18T08:20:37.692Z,2.57
2018-06-18T08:23:06.339Z,2.17
2018-06-18T08:25:34.976Z,3.30
2018-06-18T08:28:03.930Z,3.00
2018-06-18T08:30:32.646Z,2.70
2018-06-18T08:33:01.299Z,2.30
2018-06-18T08:35:29.786Z,2.17
2018-06-18T08:37:58.407Z,2.63
2018-06-18T08:40:26.963Z,2.53
2018-06-18T08:42:55.668Z,2.70
2018-06-18T08:45:24.598Z,3.30
2018-06-18T08:47:53.568Z,2.73
2018-06-18T08:50:27.506Z,2.33
2018-06-18T08:53:01.235Z,2.33
2018-06-18T08:55:34.966Z,3.10
2018-06-18T08:58:08.627Z,2.50
2018-06-18T09:00:42.303Z,2.50
2018-06-18T09:03:16.403Z,2.97
2018-06-18T09:05:53.257Z,2.90
2018-06-18T09:08:24.227Z,3.13
2018-06-18T09:10:53.716Z,2.20
2018-06-18T09:13:22.787Z,2.63
2018-06-18T09:15:51.453Z,2.97
2018-06-18T09:18:19.917Z,3.10
2018-06-18T09:20:48.710Z,2.93
2018-06-18T09:23:17.254Z,3.40
2018-06-18T09:25:51.346Z,2.83
2018-06-18T09:28:19.817Z,2.40
2018-06-18T09:30:48.314Z,3.10
2018-06-18T09:33:16.781Z,2.60
2018-06-18T09:35:45.266Z,2.57
2018-06-18T09:38:14.096Z,2.97
2018-06-18T09:40:44.408Z,2.77
2018-06-18T09:43:18.546Z,2.70
2018-06-18T09:45:47.783Z,3.33
2018-06-18T09:48:16.915Z,2.80
2018-06-18T09:50:50.950Z,2.87
2018-06-18T09:53:25.073Z,2.70
2018-06-18T09:55:59.480Z,3.13
2018-06-18T09:58:33.380Z,3.20
2018-06-18T10:01:10.017Z,2.53
2018-06-18T10:03:38.729Z,2.70
2018-06-18T10:06:07.869Z,2.90
2018-06-18T10:08:36.837Z,3.27
2018-06-18T10:11:05.632Z,3.93
2018-06-18T10:13:34.045Z,3.23
2018-06-18T10:16:02.877Z,2.83
2018-06-18T10:18:31.949Z,2.90
2018-06-18T10:21:04.646Z,3.50
2018-06-18T10:23:33.502Z,3.70
2018-06-18T10:26:02.193Z,2.83
2018-06-18T10:28:31.423Z,2.70
2018-06-18T10:31:00.218Z,3.10
2018-06-18T10:33:34.363Z,3.27
2018-06-18T10:36:08.357Z,2.60
2018-06-18T10:38:42.529Z,2.90
2018-06-18T10:41:17.133Z,2.60
2018-06-18T10:43:45.581Z,2.73
2018-06-18T10:46:14.047Z,2.97
2018-06-18T10:48:42.811Z,2.83
2018-06-18T10:54:04.719Z,3.37
2018-06-18T10:56:33.173Z,2.90
2018-06-18T10:59:02.390Z,2.53
2018-06-18T11:01:32.596Z,2.40
2018-06-18T11:04:02.041Z,3.33
2018-06-18T11:06:35.736Z,3.60
2018-06-18T11:09:06.795Z,2.67
2018-06-18T11:11:38.615Z,2.90
2018-06-18T11:14:07.258Z,3.37
2018-06-18T11:16:35.918Z,2.93
2018-06-18T11:19:10.418Z,2.77
2018-06-18T11:21:44.259Z,2.73
2018-06-18T11:24:18.058Z,2.73
2018-06-18T11:26:51.977Z,2.20
2018-06-18T11:29:22.071Z,2.80
2018-06-18T11:31:52.735Z,3.03
2018-06-18T11:34:21.465Z,3.40
2018-06-18T11:36:49.970Z,3.10
2018-06-18T11:39:19.457Z,2.53
2018-06-18T11:41:47.978Z,3.60
2018-06-18T11:44:17.111Z,2.67
2018-06-18T11:46:45.701Z,2.80
2018-06-18T11:49:14.431Z,3.60
2018-06-18T11:51:43.251Z,3.27
2018-06-18T11:54:12.169Z,2.70
2018-06-18T11:56:40.756Z,2.40
2018-06-18T11:59:14.527Z,2.67
2018-06-18T12:01:48.153Z,2.53
2018-06-18T12:04:21.904Z,3.17
2018-06-18T12:06:55.879Z,2.93
2018-06-18T12:09:29.757Z,3.27
2018-06-18T12:11:58.293Z,3.00
2018-06-18T12:14:27.428Z,2.40
2018-06-18T12:16:56.233Z,3.03
2018-06-18T12:19:25.557Z,2.73
2018-06-18T12:21:54.804Z,2.40
2018-06-18T12:24:23.632Z,2.70
2018-06-18T12:26:52.337Z,2.50
2018-06-18T12:29:22.463Z,3.03
2018-06-18T12:31:51.393Z,2.63
2018-06-18T12:34:19.977Z,2.53
2018-06-18T12:36:49.268Z,2.80
2018-06-18T12:39:17.804Z,2.53
2018-06-18T12:41:49.664Z,3.03
2018-06-18T12:44:20.097Z,2.43
2018-06-18T12:46:55.959Z,2.83
2018-06-18T12:49:30.384Z,2.77
2018-06-18T12:52:04.598Z,5.20
2018-06-18T12:54:38.467Z,2.83
2018-06-18T12:57:08.827Z,3.00
2018-06-18T12:59:38.561Z,2.97
2018-06-18T13:02:10.127Z,3.10
2018-06-18T13:04:41.309Z,2.47
2018-06-18T13:07:10.038Z,2.50
2018-06-18T13:09:38.625Z,3.20
2018-06-18T13:12:07.498Z,3.33
2018-06-18T13:14:36.539Z,2.80
2018-06-18T13:17:05.453Z,2.57
2018-06-18T13:19:34.102Z,2.93
2018-06-18T13:22:03.476Z,3.60
2018-06-18T13:24:33.472Z,2.90
2018-06-18T13:27:02.309Z,5.30
2018-06-18T13:29:34.798Z,4.57
2018-06-18T13:32:05.772Z,3.47
2018-06-18T13:34:34.621Z,2.33
2018-06-18T13:37:09.061Z,2.77
2018-06-18T13:39:42.938Z,2.10
2018-06-18T13:42:16.576Z,2.67
2018-06-18T13:44:50.494Z,3.07
2018-06-18T13:47:24.319Z,2.47
2018-06-18T13:49:55.033Z,3.47
2018-06-18T13:52:26.070Z,3.10
2018-06-18T13:54:58.889Z,2.67
2018-06-18T13:57:30.953Z,3.00
2018-06-18T14:00:01.112Z,3.20
2018-06-18T14:02:30.322Z,3.20
2018-06-18T14:05:01.673Z,2.70
2018-06-18T14:07:32.460Z,3.30
2018-06-18T14:10:07.778Z,3.00
2018-06-18T14:12:39.289Z,2.73
2018-06-18T14:15:11.693Z,2.70
2018-06-18T14:17:41.379Z,4.23
2018-06-18T14:20:21.192Z,3.87
2018-06-18T14:22:51.902Z,2.90
2018-06-18T14:25:25.836Z,3.20
2018-06-18T14:27:57.098Z,3.70
2018-06-18T14:30:31.426Z,3.03
2018-06-18T14:33:06.927Z,3.10
2018-06-18T14:35:41.722Z,4.37
2018-06-18T14:38:16.012Z,3.50
2018-06-18T14:40:45.444Z,3.80
2018-06-18T14:43:13.909Z,6.33
2018-06-18T14:45:42.543Z,4.40
2018-06-18T14:48:11.492Z,3.13
2018-06-18T14:50:41.055Z,3.07
2018-06-18T14:53:09.600Z,3.37
2018-06-18T14:55:38.214Z,3.93
2018-06-18T14:58:06.796Z,3.27
2018-06-18T15:00:35.881Z,3.73
2018-06-18T15:03:04.486Z,2.90
2018-06-18T15:05:40.720Z,3.70
2018-06-18T15:08:17.292Z,3.37
2018-06-18T15:10:51.091Z,3.10
2018-06-18T15:13:21.001Z,3.13
2018-06-18T15:15:55.048Z,2.70
2018-06-18T15:18:23.801Z,2.73
2018-06-18T15:23:42.179Z,2.63
2018-06-18T15:26:11.051Z,2.90
2018-06-18T15:28:40.030Z,2.90
2018-06-18T15:31:09.630Z,3.10
2018-06-18T15:33:38.612Z,2.73
2018-06-18T15:36:07.169Z,2.47
2018-06-18T15:38:35.677Z,2.50
2018-06-18T15:41:04.462Z,3.07
2018-06-18T15:43:32.917Z,2.63
2018-06-18T15:46:01.413Z,3.20
2018-06-18T15:48:32.995Z,2.50
2018-06-18T15:51:04.229Z,2.50
2018-06-18T15:53:34.863Z,3.80
2018-06-18T15:56:03.415Z,3.43
2018-06-18T15:58:31.937Z,2.80
2018-06-18T16:01:00.600Z,2.90
2018-06-18T16:03:30.262Z,3.53
2018-06-18T16:05:58.935Z,2.90
2018-06-18T16:08:27.605Z,2.97
2018-06-18T16:10:56.156Z,2.90
2018-06-18T16:13:24.630Z,2.40
2018-06-18T16:15:53.096Z,4.40
2018-06-18T16:18:21.627Z,4.50
2018-06-18T16:20:50.077Z,2.77
2018-06-18T16:23:18.544Z,2.87
2018-06-18T16:25:47.021Z,2.80
2018-06-18T16:28:15.416Z,3.00
2018-06-18T16:30:43.865Z,2.90
2018-06-18T16:33:12.366Z,3.57
2018-06-18T16:35:40.877Z,3.00
2018-06-18T16:38:09.403Z,2.67
2018-06-18T16:40:37.925Z,2.87
2018-06-18T16:43:06.366Z,3.17
2018-06-18T16:45:34.911Z,2.90
2018-06-18T16:48:03.366Z,2.40
2018-06-18T16:50:35.729Z,2.20
2018-06-18T16:53:04.271Z,2.10
2018-06-18T16:55:32.837Z,2.70
2018-06-18T16:58:01.272Z,2.57
2018-06-18T17:00:29.801Z,3.00
2018-06-18T17:02:58.301Z,2.67
2018-06-18T17:05:26.805Z,2.40
2018-06-18T17:07:55.280Z,2.93
2018-06-18T17:10:24.095Z,3.23
2018-06-18T17:12:52.642Z,2.43
2018-06-18T17:15:21.232Z,2.80
2018-06-18T17:17:49.940Z,3.57
2018-06-18T17:20:18.749Z,3.07
2018-06-18T17:22:47.182Z,2.47
2018-06-18T17:25:15.763Z,3.20
2018-06-18T17:27:44.216Z,2.20
2018-06-18T17:30:12.761Z,2.00
2018-06-18T17:32:41.280Z,2.50
2018-06-18T17:35:09.776Z,2.87
2018-06-18T17:37:38.260Z,2.10
2018-06-18T17:40:06.781Z,2.30
2018-06-18T17:42:35.282Z,2.90
2018-06-18T17:45:03.784Z,2.80
2018-06-18T17:47:32.219Z,2.80
2018-06-18T17:50:00.743Z,2.10
2018-06-18T17:52:29.278Z,2.60
2018-06-18T17:54:57.778Z,2.50
2018-06-18T17:57:26.209Z,3.73
2018-06-18T17:59:54.724Z,2.17
2018-06-18T18:02:23.195Z,2.37
2018-06-18T18:04:54.812Z,2.23
2018-06-18T18:07:23.293Z,2.30
2018-06-18T18:09:51.826Z,2.30
2018-06-18T18:12:20.825Z,2.80
2018-06-18T18:14:49.425Z,2.37
2018-06-18T18:17:17.982Z,2.60
2018-06-18T18:19:46.608Z,2.90
2018-06-18T18:22:15.175Z,2.63
2018-06-18T18:24:43.661Z,2.30
2018-06-18T18:27:12.099Z,2.40
2018-06-18T18:29:40.559Z,2.00
2018-06-18T18:32:08.989Z,2.20
2018-06-18T18:34:37.578Z,2.33
2018-06-18T18:37:06.081Z,2.33
2018-06-18T18:39:34.517Z,2.20
2018-06-18T18:42:03.071Z,2.87
2018-06-18T18:44:31.580Z,2.60
2018-06-18T18:47:00.384Z,2.67
2018-06-18T18:49:28.929Z,2.67
2018-06-18T18:51:57.680Z,2.70
2018-06-18T18:54:35.394Z,2.63
2018-06-18T18:57:09.309Z,2.37
2018-06-18T18:59:39.113Z,2.73
2018-06-18T19:02:07.650Z,3.03
2018-06-18T19:04:41.028Z,2.50
2018-06-18T19:07:09.463Z,3.67
2018-06-18T19:09:40.357Z,2.47
2018-06-18T19:12:08.833Z,2.90
2018-06-18T19:14:37.356Z,2.30
2018-06-18T19:17:05.791Z,2.43
2018-06-18T19:19:41.511Z,2.87
2018-06-18T19:22:09.900Z,3.13
2018-06-18T19:24:38.321Z,3.43
2018-06-18T19:27:06.721Z,2.77
2018-06-18T19:29:35.134Z,2.70
2018-06-18T19:32:03.656Z,2.67
2018-06-18T19:34:32.132Z,2.97
2018-06-18T19:37:00.712Z,2.53
2018-06-18T19:39:30.074Z,2.30
2018-06-18T19:41:58.510Z,2.63
2018-06-18T19:44:27.123Z,2.30
2018-06-18T19:47:01.220Z,2.70
2018-06-18T19:49:29.622Z,3.00
2018-06-18T19:51:58.078Z,2.17
2018-06-18T19:54:27.592Z,3.17
2018-06-18T19:56:56.011Z,3.07
2018-06-18T19:59:24.362Z,2.77
2018-06-18T20:01:52.813Z,3.50
2018-06-18T20:04:24.099Z,3.30
2018-06-18T20:06:52.546Z,2.70
2018-06-18T20:09:20.944Z,2.70
2018-06-18T20:11:49.392Z,2.93
2018-06-18T20:14:17.824Z,2.53
2018-06-18T20:16:47.687Z,3.50
2018-06-18T20:19:16.235Z,2.50
2018-06-18T20:21:44.909Z,2.77
2018-06-18T20:24:13.400Z,2.70
2018-06-18T20:26:41.844Z,2.73
2018-06-18T20:29:10.239Z,2.93
2018-06-18T20:31:38.677Z,3.37
2018-06-18T20:34:07.429Z,3.00
2018-06-18T20:36:35.897Z,3.50
2018-06-18T20:39:06.582Z,3.70
2018-06-18T20:41:35.027Z,4.67
2018-06-18T20:44:08.808Z,4.97
2018-06-18T20:46:37.533Z,4.20
2018-06-18T20:49:06.566Z,3.90
2018-06-18T20:51:35.078Z,5.10
2018-06-18T20:54:03.628Z,4.47
2018-06-18T20:56:32.258Z,5.43
2018-06-18T20:59:00.714Z,5.33
2018-06-18T21:01:29.239Z,5.23
2018-06-18T21:03:57.640Z,4.70
2018-06-18T21:06:26.145Z,3.87
2018-06-18T21:08:54.603Z,4.30
2018-06-18T21:11:23.016Z,3.67
2018-06-18T21:13:51.545Z,3.90
2018-06-18T21:16:20.103Z,3.30
2018-06-18T21:18:48.543Z,3.80
2018-06-18T21:21:17.010Z,3.87
2018-06-18T21:23:45.424Z,3.20
2018-06-18T21:26:14.202Z,4.07
2018-06-18T21:28:42.704Z,3.40
2018-06-18T21:31:11.157Z,3.13
2018-06-18T21:33:39.717Z,4.00
2018-06-18T21:36:08.122Z,3.90
2018-06-18T21:38:36.571Z,2.97
2018-06-18T21:41:05.035Z,3.83
2018-06-18T21:43:33.516Z,4.43
2018-06-18T21:46:02.091Z,3.33
2018-06-18T21:48:30.514Z,3.97
2018-06-18T21:50:58.937Z,3.83
2018-06-18T21:53:27.346Z,4.13
2018-06-18T21:55:55.773Z,3.97
2018-06-18T21:58:24.294Z,3.70
2018-06-18T22:00:53.448Z,4.23
2018-06-18T22:03:21.887Z,3.50
2018-06-18T22:05:50.553Z,3.43
2018-06-18T22:08:19.709Z,3.67
2018-06-18T22:10:48.207Z,4.90
2018-06-18T22:13:16.646Z,2.83
2018-06-18T22:15:45.119Z,3.70
2018-06-18T22:18:13.602Z,3.70
2018-06-18T22:20:42.112Z,3.60
2018-06-18T22:23:10.591Z,4.30
2018-06-18T22:25:39.017Z,4.30
2018-06-18T22:28:10.604Z,3.30
2018-06-18T22:30:39.101Z,3.30
2018-06-18T22:33:07.561Z,3.83
2018-06-18T22:35:36.045Z,3.17
2018-06-18T22:38:04.547Z,3.67
2018-06-18T22:40:33.000Z,3.70
2018-06-18T22:43:01.483Z,3.30
2018-06-18T22:45:29.957Z,3.60
2018-06-18T22:47:58.431Z,3.37
2018-06-18T22:50:26.913Z,3.07
2018-06-18T22:52:55.397Z,3.50
2018-06-18T22:55:23.831Z,3.50
2018-06-18T22:57:52.260Z,3.50
2018-06-18T23:00:20.696Z,3.03
2018-06-18T23:02:49.201Z,3.57
2018-06-18T23:05:17.745Z,3.77
2018-06-18T23:07:46.213Z,2.83
2018-06-18T23:10:14.722Z,3.10
2018-06-18T23:12:43.629Z,3.00
2018-06-18T23:15:12.439Z,3.72
2018-06-18T23:17:41.104Z,2.97
2018-06-18T23:20:10.096Z,3.50
2018-06-18T23:22:38.965Z,3.30
2018-06-18T23:25:07.618Z,3.17
2018-06-18T23:27:36.063Z,3.70
2018-06-18T23:30:04.745Z,3.20
2018-06-18T23:32:33.121Z,3.40
2018-06-18T23:35:01.515Z,3.00
2018-06-18T23:37:29.905Z,3.72
2018-06-18T23:39:58.372Z,2.95
2018-06-18T23:42:26.784Z,3.60
2018-06-18T23:44:55.148Z,3.20
2018-06-18T23:47:23.628Z,3.45
2018-06-18T23:49:52.045Z,4.22
2018-06-18T23:52:20.526Z,2.95
2018-06-18T23:54:48.992Z,3.40
2018-06-18T23:57:17.363Z,3.77
2018-06-18T23:59:45.882Z,4.25
